Kotzebue, AK

8:35 PM AKDT on October 01, 2014 (GMT -0800)
Wien Memorial | Change Station
CLOSE
Current Station
Airport
Location: Kotzebue,
Elevation: 16 ft
Nearby Weather Stations

Elev 16 ft 66.88 °N, 162.60 °W | Updated 42 minutes ago

Overcast
Overcast
44 °F
Feels Like 39 °F
N
10
Wind Variable Wind from WNW

Today
High -- | Low -- °F
--% Chance of Precip.
Yesterday
High -- | Low -- °F
Precip. -- in
9:02 AM 8:15 PM
First Quarter, 54% visible
Pressure 30.15 in
Visibility 10.0 miles
Clouds Overcast 6000 ft
Windchill 39 °F
Dew Point 40 °F
Humidity 85%
Rainfall 0.02 in
Snow Depth 2 in , 0 in , 3 in
UV 0 out of 12
Pollen Not available.
Air Quality Not available.
Flu Activity Not available.
METAR PAOT 020353Z 29009KT 10SM OVC060 07/04 A3015 RMK AO2 SLP209 T00670044

More Conditions Fewer Conditions

Pressure 30.15 in
Visibility 10.0 miles
Clouds Overcast 6000 ft
Windchill 39 °F
Dew Point 40 °F
Humidity 85%
Rainfall 0.02 in
Snow Depth 2 in , 0 in , 3 in
UV 0 out of 12
Pollen Not available.
Air Quality Not available.
Flu Activity Not available.
METAR PAOT 020353Z 29009KT 10SM OVC060 07/04 A3015 RMK AO2 SLP209 T00670044

More Conditions Fewer Conditions

10-Day Weather Forecast

Almanac

Astronomy

Oct. 01, 2014 Rise Set
Actual Time 9:02 AM AKDT 8:15 PM AKDT
Civil Twilight 8:10 AM AKDT 9:07 PM AKDT
Nautical Twilight 7:07 AM AKDT 10:10 PM AKDT
Astronomical Twilight 5:56 AM AKDT 11:19 PM AKDT
Moon 6:14 PM AKDT (10/1) No Moon Set
Length of Visible Light 12h 57m
Length of Day
11h 12m
Tomorrow will be 7m 19s shorter.
First Quarter, 54% of the Moon is Illuminated
Oct 2
First Quarter
Oct 8
Full
Oct 15
Last Quarter
Oct 23
New
Oct 30
First Quarter

Yesterday's Extremes

State Highs State Lows

Community

WunderPhotos

Upload Photos

1,758,187 photos uploaded!

Nearby

Snow Depth

Station Depth Elevation
Indian Pass 2 in 2300 ft
Summit Creek 0 in 1400 ft
Gobblers Knob 3 in 2030 ft
Upper Tsaina River 0 in 1750 ft
Grouse Creek Divide 0 in 700 ft

Earthquake Activity

City Distance Mag. Time & Date
No recent earthquake activity has been reported nearby.
Minimum magnitude displayed is 2.5.

Coastal Water Temperatures

Place Temperature
No Stations Reporting

Nearby Weather Stations